Time;durP1;ratioP1;P1;durP2;ratioP2;P2;SDS_P1;SDS_P2;PMS_P1;PMS_P2;Temp;Humidity;BMP_temperature;BMP_pressure;BME280_temperature;BME280_humidity;BME280_pressure;Samples;Min_cycle;Max_cycle;Signal;HPM_P1;HPM_P2
2023/05/29 00:02:45;;;;;;;1.07;0.97;;;;;;;18.18;59.63;96573.56;10480482;28;20031;-34
2023/05/29 00:07:45;;;;;;;1.40;1.23;;;;;;;18.19;59.94;96581.16;10479475;28;20775;-33
2023/05/29 00:12:46;;;;;;;1.77;1.10;;;;;;;18.17;59.80;96569.34;10492346;28;20044;-33
2023/05/29 00:17:46;;;;;;;1.40;1.20;;;;;;;18.40;59.54;96565.94;10480749;28;20041;-32
2023/05/29 00:22:47;;;;;;;1.20;1.00;;;;;;;18.59;59.59;96571.81;10490399;28;20039;-34
2023/05/29 00:27:47;;;;;;;1.67;1.40;;;;;;;18.50;59.57;96575.22;10471517;28;20037;-33
2023/05/29 00:32:47;;;;;;;2.83;1.40;;;;;;;18.35;59.30;96572.69;10479284;28;20040;-33
2023/05/29 00:37:48;;;;;;;1.27;1.15;;;;;;;18.29;59.52;96571.84;10479727;28;20043;-33
2023/05/29 00:42:49;;;;;;;2.17;1.60;;;;;;;18.23;59.32;96572.69;10450388;28;20052;-33
2023/05/29 00:47:49;;;;;;;1.20;1.10;;;;;;;18.22;59.05;96567.63;10452305;28;20043;-33
2023/05/29 00:52:50;;;;;;;1.35;1.25;;;;;;;18.18;59.30;96560.88;10456111;28;20319;-35
2023/05/29 00:57:50;;;;;;;1.85;1.48;;;;;;;18.17;59.02;96564.28;10470821;28;20029;-34
2023/05/29 01:02:52;;;;;;;2.42;1.67;;;;;;;18.16;59.02;96576.09;10461675;28;20029;-34
2023/05/29 01:07:52;;;;;;;2.10;1.73;;;;;;;18.16;59.08;96570.19;10472207;28;20024;-33
2023/05/29 01:13:06;;;;;;;1.80;1.60;;;;;;;18.13;59.09;96571.03;10478240;28;20040;-33
2023/05/29 01:18:27;;;;;;;3.72;2.10;;;;;;;18.34;58.78;96567.66;10470089;28;20029;-34
2023/05/29 01:23:40;;;;;;;3.38;1.98;;;;;;;18.53;58.22;96571.81;10469881;28;20036;-33
2023/05/29 01:28:52;;;;;;;2.33;1.77;;;;;;;18.49;58.79;96575.22;10455462;28;20128;-33
2023/05/29 01:33:54;;;;;;;2.40;1.73;;;;;;;18.34;58.47;96570.19;10459871;28;20116;-32
2023/05/29 01:38:57;;;;;;;2.60;1.80;;;;;;;18.24;58.71;96568.50;10470794;28;20071;-32
2023/05/29 01:43:59;;;;;;;4.13;2.28;;;;;;;18.18;58.54;96568.50;10468996;28;20413;-32
2023/05/29 01:48:59;;;;;;;2.08;1.88;;;;;;;18.15;58.55;96560.91;10461201;28;20029;-33
2023/05/29 01:54:00;;;;;;;2.50;2.17;;;;;;;18.14;58.41;96560.03;10486772;28;20500;-34
2023/05/29 01:59:02;;;;;;;2.30;2.10;;;;;;;18.12;58.62;96561.75;10463389;28;20319;-33
2023/05/29 02:04:03;;;;;;;3.45;2.40;;;;;;;18.11;58.30;96554.13;10454886;28;20070;-33
2023/05/29 02:09:03;;;;;;;3.37;2.30;;;;;;;18.09;58.19;96548.22;10471727;28;20036;-33
2023/05/29 02:14:04;;;;;;;3.65;2.33;;;;;;;18.09;58.08;96548.22;10487009;28;20029;-34
2023/05/29 02:19:05;;;;;;;3.10;2.38;;;;;;;18.22;57.93;96547.34;10462762;28;20017;-33
2023/05/29 02:24:06;;;;;;;4.93;2.45;;;;;;;18.46;57.41;96544.81;10470118;28;20036;-33
2023/05/29 02:29:08;;;;;;;3.90;2.97;;;;;;;18.48;57.74;96549.03;10471002;28;20033;-33
2023/05/29 02:34:08;;;;;;;2.88;2.28;;;;;;;18.35;58.25;96541.47;10473651;28;20036;-33
2023/05/29 02:39:09;;;;;;;3.53;3.03;;;;;;;18.22;58.17;96545.69;10494124;28;20028;-33
2023/05/29 02:44:09;;;;;;;3.75;2.40;;;;;;;18.16;58.17;96550.75;10495908;28;20385;-33
2023/05/29 02:49:10;;;;;;;3.73;2.63;;;;;;;18.13;58.18;96560.03;10487713;28;20036;-34
2023/05/29 02:54:12;;;;;;;3.70;2.60;;;;;;;18.11;58.08;96551.59;10494528;28;20024;-32
2023/05/29 02:59:12;;;;;;;3.00;2.70;;;;;;;18.04;58.00;96538.09;10477636;28;20044;-33
2023/05/29 03:04:12;;;;;;;3.03;2.70;;;;;;;18.09;57.92;96548.22;10494719;28;20039;-34
2023/05/29 03:09:13;;;;;;;3.42;2.95;;;;;;;18.07;57.89;96550.75;10470864;28;20283;-34
2023/05/29 03:14:13;;;;;;;6.75;3.13;;;;;;;18.07;57.86;96542.34;10477296;28;20025;-32
2023/05/29 03:19:14;;;;;;;3.57;2.63;;;;;;;18.09;57.72;96548.22;10459172;28;20071;-33
2023/05/29 03:24:17;;;;;;;4.25;3.08;;;;;;;18.36;57.32;96538.94;10492425;28;20293;-33
2023/05/29 03:29:18;;;;;;;3.53;2.97;;;;;;;18.51;56.29;96543.94;10468006;28;20037;-33
2023/05/29 03:34:18;;;;;;;5.00;2.85;;;;;;;18.36;57.72;96538.06;10475903;28;20024;-33
2023/05/29 03:39:26;;;;;;;3.78;2.97;;;;;;;18.21;57.34;96538.06;10456903;28;20400;-32
2023/05/29 03:44:29;;;;;;;3.70;3.07;;;;;;;18.18;57.65;96548.22;10485233;28;20048;-33
2023/05/29 03:49:30;;;;;;;4.13;2.88;;;;;;;18.13;57.53;96547.38;10455206;28;20047;-33
2023/05/29 03:54:30;;;;;;;3.77;2.77;;;;;;;18.11;57.43;96551.59;10477108;28;20028;-32
2023/05/29 03:59:31;;;;;;;4.93;3.33;;;;;;;18.09;57.53;96553.31;10453218;28;20071;-34
2023/05/29 04:04:32;;;;;;;4.32;3.20;;;;;;;18.05;57.39;96555.00;10458640;28;20278;-32
2023/05/29 04:09:35;;;;;;;3.53;2.77;;;;;;;18.07;57.59;96549.94;10465810;28;20538;-33
2023/05/29 04:14:36;;;;;;;5.20;3.70;;;;;;;18.07;57.36;96560.91;10474487;28;20032;-32
2023/05/29 04:19:36;;;;;;;5.43;3.60;;;;;;;18.07;57.50;96570.19;10482941;28;20040;-33
2023/05/29 04:24:37;;;;;;;4.72;2.75;;;;;;;18.30;57.25;96569.34;10458329;28;20033;-33
2023/05/29 04:29:40;;;;;;;3.97;3.10;;;;;;;18.49;56.88;96577.78;10465930;28;20037;-33
2023/05/29 04:34:43;;;;;;;4.43;3.20;;;;;;;18.43;57.38;96582.84;10467706;28;20044;-32
2023/05/29 04:39:45;;;;;;;3.90;3.40;;;;;;;18.29;56.79;96587.03;10457165;28;20033;-32
2023/05/29 04:44:52;;;;;;;3.83;3.17;;;;;;;18.20;57.42;96592.13;10456809;28;20424;-32
2023/05/29 04:49:54;;;;;;;4.68;3.45;;;;;;;18.15;57.21;96594.66;10453913;28;20029;-33
2023/05/29 04:54:55;;;;;;;5.13;3.50;;;;;;;18.08;57.09;96595.50;10478708;28;20547;-33
2023/05/29 04:59:55;;;;;;;3.97;3.10;;;;;;;18.10;57.36;96603.13;10464264;28;20404;-34
2023/05/29 05:04:56;;;;;;;5.07;3.78;;;;;;;18.08;57.05;96608.19;10475062;28;20032;-33
2023/05/29 05:09:57;;;;;;;4.15;3.50;;;;;;;18.07;57.06;96621.69;10458175;28;20025;-32
2023/05/29 05:15:01;;;;;;;4.93;4.03;;;;;;;18.01;57.09;96605.66;10452254;28;20031;-33
2023/05/29 05:20:04;;;;;;;3.83;3.35;;;;;;;18.06;56.98;96614.09;10486287;28;20028;-33
2023/05/29 05:25:06;;;;;;;4.45;3.58;;;;;;;18.20;56.67;96620.00;10472652;28;20024;-33
2023/05/29 05:30:07;;;;;;;5.63;3.60;;;;;;;18.43;56.49;96620.88;10490296;28;20037;-33
2023/05/29 05:35:11;;;;;;;5.00;3.55;;;;;;;18.46;56.48;96616.63;10470045;28;20492;-34
2023/05/29 05:40:12;;;;;;;6.07;3.83;;;;;;;18.31;57.44;96610.72;10463990;28;20033;-33
2023/05/29 05:45:23;;;;;;;5.28;3.78;;;;;;;18.21;56.86;96614.94;10455756;28;20116;-32
2023/05/29 05:50:24;;;;;;;4.20;3.47;;;;;;;18.20;57.00;96618.31;10489967;28;20119;-33
2023/05/29 05:55:26;;;;;;;4.00;3.00;;;;;;;18.17;57.00;96620.00;10478508;28;20028;-33
2023/05/29 06:00:28;;;;;;;4.47;3.67;;;;;;;18.15;56.79;96619.19;10471630;28;20086;-32
2023/05/29 06:05:30;;;;;;;6.70;3.83;;;;;;;18.13;57.12;96625.91;10461933;28;20060;-33
2023/05/29 06:10:31;;;;;;;4.47;3.30;;;;;;;18.12;56.99;96617.47;10479027;28;20033;-32
2023/05/29 06:15:31;;;;;;;5.10;3.13;;;;;;;18.11;56.84;96614.94;10477447;28;20290;-32
2023/05/29 06:20:32;;;;;;;4.25;3.60;;;;;;;18.10;56.85;96626.78;10478694;28;20633;-33
2023/05/29 06:25:35;;;;;;;4.35;3.58;;;;;;;18.14;56.94;96632.66;10479175;28;20054;-34
2023/05/29 06:30:36;;;;;;;4.65;3.35;;;;;;;18.38;57.02;96632.69;10447352;28;20096;-34
2023/05/29 06:35:40;;;;;;;4.85;3.30;;;;;;;18.54;56.22;96635.22;10478131;28;20404;-33
2023/05/29 06:40:40;;;;;;;3.77;3.10;;;;;;;18.43;57.50;96636.06;10461296;28;20021;-34
2023/05/29 06:45:40;;;;;;;4.97;3.63;;;;;;;18.32;57.60;96637.78;10460120;28;20794;-33
2023/05/29 06:50:41;;;;;;;5.85;3.40;;;;;;;18.26;57.33;96637.75;10480233;28;20298;-32
2023/05/29 06:56:10;;;;;;;3.95;3.30;;;;;;;18.21;57.19;96644.50;10402428;28;20037;-33
2023/05/29 07:01:11;;;;;;;5.90;4.00;;;;;;;18.20;57.01;96636.06;10468824;28;20032;-33
2023/05/29 07:06:17;;;;;;;;;;;;;;;18.16;57.25;96644.50;10477923;28;20541;-33
2023/05/29 07:11:18;;;;;;;5.47;3.70;;;;;;;18.13;57.18;96646.19;10459972;28;19920;-33
2023/05/29 07:16:18;;;;;;;3.00;2.70;;;;;;;18.14;57.36;96655.47;10468772;28;20032;-34
2023/05/29 07:21:20;;;;;;;4.63;3.88;;;;;;;18.15;57.03;96647.88;10476458;28;20433;-33
2023/05/29 07:26:22;;;;;;;4.63;4.17;;;;;;;18.18;56.93;96649.56;10460025;28;20564;-33
2023/05/29 07:31:24;;;;;;;4.75;3.03;;;;;;;18.39;57.62;96641.97;10472701;28;20032;-33
2023/05/29 07:36:31;;;;;;;4.72;3.45;;;;;;;18.57;58.00;96649.59;10476115;28;20029;-33
2023/05/29 07:41:31;;;;;;;5.00;3.40;;;;;;;18.48;57.98;96647.88;10468918;28;20025;-33
2023/05/29 07:46:32;;;;;;;3.27;2.90;;;;;;;18.37;57.65;96642.00;10493082;28;20036;-32
2023/05/29 07:51:52;;;;;;;3.63;2.90;;;;;;;18.35;57.63;96636.06;10487150;28;20344;-32
2023/05/29 07:56:54;;;;;;;4.10;3.00;;;;;;;18.34;57.96;96636.09;10474909;28;20039;-32
2023/05/29 08:01:58;;;;;;;4.00;3.20;;;;;;;18.33;57.95;96636.94;10458861;28;20036;-33
2023/05/29 08:07:15;;;;;;;3.42;2.75;;;;;;;18.32;57.71;96627.66;10474557;28;20124;-33
2023/05/29 08:12:15;;;;;;;3.80;3.00;;;;;;;18.31;58.55;96631.84;10457237;28;20033;-33
2023/05/29 08:17:17;;;;;;;3.40;2.90;;;;;;;18.28;57.97;96625.91;10463683;28;20340;-32
2023/05/29 08:22:17;;;;;;;3.07;2.53;;;;;;;18.32;57.86;96632.72;10470344;28;20033;-34
2023/05/29 08:27:18;;;;;;;3.27;2.90;;;;;;;18.31;57.88;96626.78;10489827;28;20480;-33
2023/05/29 08:32:18;;;;;;;3.50;2.87;;;;;;;18.40;59.01;96631.03;10491617;28;20509;-32
2023/05/29 08:37:19;;;;;;;3.30;2.43;;;;;;;18.61;58.65;96647.03;10491687;28;20555;-33
2023/05/29 08:42:26;;;;;;;3.40;2.90;;;;;;;18.63;58.13;96634.34;10488490;28;20029;-33
2023/05/29 08:47:28;;;;;;;4.50;2.58;;;;;;;18.51;58.90;96639.44;10491499;28;20503;-34
2023/05/29 08:52:35;;;;;;;3.58;2.85;;;;;;;18.42;58.76;96634.38;10477411;28;20343;-33
2023/05/29 08:57:37;;;;;;;2.90;2.50;;;;;;;18.36;58.68;96627.63;10469310;28;20067;-33
2023/05/29 09:02:39;;;;;;;3.25;2.60;;;;;;;18.38;59.01;96637.75;10474911;28;20396;-32
2023/05/29 09:07:40;;;;;;;3.75;2.78;;;;;;;18.36;58.88;96640.31;10490631;28;20036;-32
2023/05/29 09:12:41;;;;;;;2.97;2.28;;;;;;;18.37;58.72;96636.06;10482502;28;20480;-33
2023/05/29 09:17:41;;;;;;;3.25;2.20;;;;;;;18.36;58.82;96645.38;10486530;28;20036;-33
2023/05/29 09:22:46;;;;;;;2.77;2.27;;;;;;;18.31;58.69;96628.47;10491076;28;20133;-33
2023/05/29 09:27:46;;;;;;;3.13;2.50;;;;;;;18.35;58.36;96643.66;10486626;28;20024;-33
2023/05/29 09:32:53;;;;;;;3.45;2.67;;;;;;;18.39;60.51;96641.97;10490680;28;20737;-33
2023/05/29 09:37:53;;;;;;;;;;;;;;;18.60;59.10;96634.34;10490183;28;20390;-33
2023/05/29 09:42:54;;;;;;;2.75;2.30;;;;;;;18.68;58.23;96637.72;10481543;28;19912;-33
2023/05/29 09:47:54;;;;;;;3.63;2.67;;;;;;;18.55;59.57;96644.50;10481847;28;20068;-33
2023/05/29 09:52:57;;;;;;;3.33;2.38;;;;;;;18.47;59.44;96640.28;10489779;28;20032;-33
2023/05/29 09:57:59;;;;;;;2.63;2.20;;;;;;;18.41;59.29;96636.06;10480107;28;20044;-33
2023/05/29 10:02:59;;;;;;;2.83;2.10;;;;;;;18.40;59.32;96636.09;10473241;28;20033;-33
2023/05/29 10:08:02;;;;;;;3.13;2.13;;;;;;;18.38;59.12;96622.53;10466411;28;20032;-33
2023/05/29 10:13:03;;;;;;;2.50;2.20;;;;;;;18.38;58.77;96627.63;10489656;28;20044;-33
2023/05/29 10:18:11;;;;;;;2.72;2.30;;;;;;;18.36;58.90;96624.25;10486595;28;20040;-33
2023/05/29 10:23:13;;;;;;;2.60;2.40;;;;;;;18.37;59.02;96629.31;10468294;28;20032;-33
2023/05/29 10:28:13;;;;;;;2.65;2.05;;;;;;;18.37;58.96;96626.78;10480816;28;20073;-33
2023/05/29 10:33:26;;;;;;;2.70;2.28;;;;;;;18.38;60.49;96628.47;10492254;28;20503;-33
2023/05/29 10:38:27;;;;;;;3.03;2.28;;;;;;;18.59;60.00;96617.47;10496531;28;20408;-33
2023/05/29 10:43:33;;;;;;;2.45;1.85;;;;;;;18.70;58.83;96613.19;10461497;28;20047;-33
2023/05/29 10:48:36;;;;;;;2.17;1.98;;;;;;;18.58;59.57;96616.59;10487174;28;20041;-33
2023/05/29 10:53:40;;;;;;;2.40;2.05;;;;;;;18.45;59.62;96607.34;10487824;28;20123;-33
2023/05/29 10:58:41;;;;;;;2.22;2.03;;;;;;;18.41;59.72;96604.81;10495095;28;20033;-33
2023/05/29 11:03:41;;;;;;;2.00;1.80;;;;;;;18.43;59.62;96614.09;10488925;28;20401;-33
2023/05/29 11:08:45;;;;;;;2.00;1.80;;;;;;;18.42;59.68;96606.50;10462893;28;20408;-33
2023/05/29 11:13:53;;;;;;;2.20;2.00;;;;;;;18.40;59.48;96603.97;10493946;28;20404;-33
2023/05/29 11:18:54;;;;;;;2.25;1.80;;;;;;;18.38;59.47;96607.34;10479552;28;20032;-32
2023/05/29 11:23:58;;;;;;;2.33;1.92;;;;;;;18.38;59.29;96597.19;10494151;28;20059;-33
2023/05/29 11:29:00;;;;;;;2.33;1.80;;;;;;;18.39;59.19;96601.41;10479148;28;20582;-32
2023/05/29 11:34:05;;;;;;;2.53;2.22;;;;;;;18.39;59.64;96601.41;10484210;28;20127;-32
2023/05/29 11:39:06;;;;;;;2.30;1.90;;;;;;;18.58;60.01;96603.09;10487570;28;20111;-33
2023/05/29 11:44:06;;;;;;;2.47;1.67;;;;;;;18.67;60.21;96582.78;10484849;28;20116;-33
2023/05/29 11:49:07;;;;;;;2.10;1.73;;;;;;;18.63;59.64;96581.94;10482308;28;20043;-34
2023/05/29 11:54:07;;;;;;;1.60;1.42;;;;;;;18.53;59.99;96581.97;10487804;28;20451;-33
2023/05/29 11:59:10;;;;;;;1.83;1.63;;;;;;;18.48;59.98;96581.13;10492744;28;20539;-33
2023/05/29 12:04:15;;;;;;;1.83;1.65;;;;;;;18.45;60.12;96584.53;10485121;28;20119;-32
2023/05/29 12:09:26;;;;;;;1.90;1.55;;;;;;;18.45;59.67;96587.06;10489194;28;20086;-34
2023/05/29 12:14:27;;;;;;;2.00;1.80;;;;;;;18.44;60.47;96587.06;10484899;28;20064;-34
2023/05/29 12:19:28;;;;;;;1.60;1.50;;;;;;;18.43;59.93;96582.84;10484015;28;20411;-32
2023/05/29 12:24:30;;;;;;;3.05;2.08;;;;;;;18.42;59.68;96565.94;10479609;28;20390;-36
2023/05/29 12:29:32;;;;;;;1.60;1.50;;;;;;;18.41;59.65;96579.47;10489077;28;20443;-33
2023/05/29 12:34:36;;;;;;;2.00;1.67;;;;;;;18.40;59.54;96580.31;10483167;28;20032;-33
2023/05/29 12:39:36;;;;;;;2.30;1.90;;;;;;;18.57;60.78;96583.66;10478032;28;20124;-33
2023/05/29 12:44:38;;;;;;;1.83;1.47;;;;;;;18.71;59.79;96585.31;10480635;28;20519;-34
2023/05/29 12:49:38;;;;;;;1.95;1.60;;;;;;;18.68;59.23;96592.06;10491461;28;20481;-33
2023/05/29 12:54:39;;;;;;;1.70;1.50;;;;;;;18.57;60.27;96584.50;10482410;28;20048;-33
2023/05/29 12:59:40;;;;;;;1.73;1.52;;;;;;;18.51;60.34;96587.03;10482959;28;20054;-34
2023/05/29 13:04:40;;;;;;;1.80;1.30;;;;;;;18.49;60.39;96600.59;10484360;28;20417;-32
2023/05/29 13:09:40;;;;;;;1.90;1.70;;;;;;;18.47;60.36;96587.91;10466053;28;20045;-33
2023/05/29 13:14:41;;;;;;;2.00;1.60;;;;;;;18.47;59.86;96579.44;10464877;28;20089;-32
2023/05/29 13:19:41;;;;;;;1.58;1.48;;;;;;;18.46;60.29;96585.34;10490319;28;20863;-33
2023/05/29 13:24:42;;;;;;;1.70;1.52;;;;;;;18.45;60.04;96586.22;10474191;28;20047;-32
2023/05/29 13:29:43;;;;;;;2.30;2.00;;;;;;;18.44;60.25;96580.31;10489946;28;20040;-33
2023/05/29 13:34:43;;;;;;;1.85;1.45;;;;;;;18.45;60.75;96586.22;10482172;28;20074;-33
2023/05/29 13:39:44;;;;;;;1.50;1.40;;;;;;;18.56;61.68;96581.94;10481687;28;20493;-33
2023/05/29 13:44:44;;;;;;;1.70;1.30;;;;;;;18.68;60.57;96571.78;10476026;28;20319;-33
2023/05/29 13:49:45;;;;;;;1.65;1.20;;;;;;;18.72;59.66;96573.44;10476583;28;20731;-33
2023/05/29 13:54:46;;;;;;;1.55;1.45;;;;;;;18.61;60.63;96568.44;10488866;28;20411;-33
2023/05/29 13:59:46;;;;;;;1.50;1.40;;;;;;;18.52;60.82;96560.00;10465424;28;20031;-33
2023/05/29 14:04:46;;;;;;;1.47;1.33;;;;;;;18.53;60.92;96569.28;10481613;28;20286;-33
2023/05/29 14:09:46;;;;;;;2.33;1.80;;;;;;;18.50;60.81;96551.56;10495603;28;20044;-32
2023/05/29 14:14:47;;;;;;;1.67;1.50;;;;;;;18.50;60.82;96561.72;10496824;28;20040;-33
2023/05/29 14:19:47;;;;;;;1.47;1.30;;;;;;;18.47;60.53;96557.47;10490638;28;20404;-33
2023/05/29 14:24:48;;;;;;;1.60;1.50;;;;;;;18.46;60.59;96549.88;10479284;28;20306;-32
2023/05/29 14:29:48;;;;;;;1.87;1.50;;;;;;;18.47;60.84;96549.03;10487597;28;20812;-34
2023/05/29 14:34:49;;;;;;;1.40;1.30;;;;;;;18.48;60.42;96553.25;10496295;28;20036;-33
2023/05/29 14:39:49;;;;;;;1.65;1.50;;;;;;;18.52;64.24;96553.25;10488302;28;20044;-32
2023/05/29 14:44:52;;;;;;;2.00;1.80;;;;;;;18.71;61.28;96561.63;10488475;28;20454;-33
2023/05/29 14:49:53;;;;;;;1.50;1.40;;;;;;;18.79;59.71;96564.97;10496063;28;20124;-33
2023/05/29 14:54:53;;;;;;;1.50;1.40;;;;;;;18.62;60.99;96547.31;10487593;28;20036;-32
2023/05/29 14:59:53;;;;;;;1.53;1.40;;;;;;;18.57;61.13;96559.13;10487759;28;20127;-33
2023/05/29 15:04:56;;;;;;;1.77;1.50;;;;;;;18.54;61.09;96556.63;10486898;28;20033;-32
2023/05/29 15:09:56;;;;;;;1.88;1.65;;;;;;;18.53;61.88;96562.53;10494940;28;20032;-33
2023/05/29 15:14:56;;;;;;;1.40;1.20;;;;;;;18.51;61.11;96565.94;10486942;28;20028;-32
2023/05/29 15:19:57;;;;;;;1.60;1.33;;;;;;;18.49;61.10;96547.34;10478301;28;20074;-32
2023/05/29 15:24:57;;;;;;;2.50;1.40;;;;;;;18.49;60.87;96562.56;10486848;28;20282;-32
2023/05/29 15:30:15;;;;;;;1.38;1.10;;;;;;;18.48;60.59;96555.78;10479671;28;20505;-33
2023/05/29 15:35:15;;;;;;;1.80;1.33;;;;;;;18.49;60.31;96565.09;10487875;28;20115;-33
2023/05/29 15:40:16;;;;;;;1.80;1.27;;;;;;;18.51;63.11;96560.84;10494086;28;20029;-33
2023/05/29 15:45:16;;;;;;;1.93;1.70;;;;;;;18.70;60.88;96552.34;10491722;28;20024;-33
2023/05/29 15:50:17;;;;;;;1.40;1.30;;;;;;;18.80;59.71;96552.31;10470942;28;20036;-32
2023/05/29 15:55:17;;;;;;;1.37;1.17;;;;;;;18.63;60.65;96553.19;10485138;28;20039;-33
2023/05/29 16:00:18;;;;;;;1.50;1.40;;;;;;;18.57;60.97;96563.38;10485321;28;20024;-33
2023/05/29 16:05:19;;;;;;;1.42;1.20;;;;;;;18.52;60.78;96560.00;10484259;28;20081;-33
2023/05/29 16:10:19;;;;;;;1.15;1.05;;;;;;;18.51;60.88;96545.66;10488399;28;20070;-34
2023/05/29 16:15:20;;;;;;;1.60;1.50;;;;;;;18.49;60.63;96547.34;10492824;28;20036;-34
2023/05/29 16:20:22;;;;;;;1.52;1.42;;;;;;;18.49;60.94;96549.88;10474618;28;20097;-33
2023/05/29 16:25:22;;;;;;;1.50;1.40;;;;;;;18.45;60.43;96540.59;10478708;28;20496;-33
2023/05/29 16:30:23;;;;;;;1.80;1.50;;;;;;;18.48;60.50;96548.16;10482559;28;20029;-32
2023/05/29 16:35:23;;;;;;;1.52;1.20;;;;;;;18.49;60.62;96552.41;10491649;28;20131;-32
2023/05/29 16:40:24;;;;;;;1.87;1.37;;;;;;;18.49;61.35;96549.88;10483644;28;20040;-32
2023/05/29 16:45:25;;;;;;;1.83;1.38;;;;;;;18.67;61.30;96555.72;10490804;28;20064;-32
2023/05/29 16:50:25;;;;;;;1.30;1.20;;;;;;;18.80;59.91;96556.53;10466867;28;20036;-33
2023/05/29 16:55:27;;;;;;;1.40;1.30;;;;;;;18.69;60.75;96554.03;10479632;28;20079;-33
2023/05/29 17:00:28;;;;;;;1.20;1.10;;;;;;;18.59;61.13;96556.59;10469274;28;20031;-34
2023/05/29 17:05:28;;;;;;;1.30;1.15;;;;;;;18.54;61.23;96554.09;10490820;28;20032;-34
2023/05/29 17:10:35;;;;;;;1.13;1.03;;;;;;;18.53;61.05;96554.09;10484528;28;20025;-32
2023/05/29 17:15:36;;;;;;;1.60;1.50;;;;;;;18.53;60.87;96566.75;10486633;28;20036;-33
2023/05/29 17:20:36;;;;;;;1.13;1.03;;;;;;;18.51;60.69;96553.25;10473379;28;20027;-33
2023/05/29 17:25:37;;;;;;;1.58;1.30;;;;;;;18.51;60.84;96563.38;10478566;28;20131;-32
2023/05/29 17:30:38;;;;;;;2.15;1.58;;;;;;;18.45;60.34;96560.84;10474044;28;20032;-33
2023/05/29 17:35:38;;;;;;;1.20;1.10;;;;;;;18.49;60.59;96570.16;10470109;28;20032;-34
2023/05/29 17:40:39;;;;;;;1.50;1.20;;;;;;;18.51;61.48;96583.66;10482648;28;20054;-32
2023/05/29 17:45:39;;;;;;;1.48;1.25;;;;;;;18.68;61.27;96585.28;10484727;28;20037;-32
2023/05/29 17:50:39;;;;;;;1.10;1.00;;;;;;;18.82;59.93;96590.34;10458260;28;20025;-32
2023/05/29 17:55:40;;;;;;;1.17;0.83;;;;;;;18.70;60.70;96593.75;10474688;28;20029;-33
2023/05/29 18:00:40;;;;;;;1.20;1.10;;;;;;;18.61;61.09;96603.06;10474309;28;20028;-33
2023/05/29 18:05:40;;;;;;;1.30;1.20;;;;;;;18.50;60.72;96592.13;10478417;28;20601;-32
2023/05/29 18:10:41;;;;;;;1.13;1.07;;;;;;;18.52;60.95;96610.72;10481279;28;20507;-33
2023/05/29 18:15:41;;;;;;;1.13;1.02;;;;;;;18.52;60.64;96608.16;10485483;28;20271;-32
2023/05/29 18:20:43;;;;;;;1.20;1.10;;;;;;;18.51;60.50;96609.03;10489051;28;20556;-33
2023/05/29 18:25:43;;;;;;;1.50;1.35;;;;;;;18.49;60.66;96613.25;10485750;28;20389;-33
2023/05/29 18:30:43;;;;;;;1.17;1.00;;;;;;;18.48;60.40;96619.16;10487759;28;20060;-32
2023/05/29 18:35:44;;;;;;;1.63;1.52;;;;;;;18.49;60.33;96624.22;10481095;28;20104;-33
2023/05/29 18:40:46;;;;;;;1.47;1.27;;;;;;;18.48;60.40;96625.06;10479929;28;20029;-32
2023/05/29 18:45:47;;;;;;;1.17;1.05;;;;;;;18.68;60.53;96627.56;10491609;28;20028;-32
2023/05/29 18:50:47;;;;;;;1.00;0.90;;;;;;;18.79;60.50;96626.72;10495684;28;20024;-33
2023/05/29 18:55:47;;;;;;;0.90;0.80;;;;;;;18.71;60.43;96630.09;10495182;28;20271;-33
2023/05/29 19:00:48;;;;;;;1.17;0.97;;;;;;;18.62;60.85;96637.72;10496732;28;20028;-32
2023/05/29 19:05:48;;;;;;;1.70;1.10;;;;;;;18.56;60.64;96637.72;10487117;28;20033;-33
2023/05/29 19:10:48;;;;;;;1.20;1.03;;;;;;;18.53;60.70;96642.81;10470159;28;20103;-32
2023/05/29 19:15:49;;;;;;;0.90;0.90;;;;;;;18.49;60.34;96641.97;10486726;28;20556;-33
2023/05/29 19:20:49;;;;;;;1.20;1.03;;;;;;;18.49;60.33;96646.22;10478512;28;20275;-32
2023/05/29 19:25:51;;;;;;;1.33;1.10;;;;;;;18.48;59.94;96647.88;10488408;28;20032;-33
2023/05/29 19:30:51;;;;;;;1.33;1.10;;;;;;;18.47;59.96;96653.81;10494196;28;20286;-32
2023/05/29 19:35:52;;;;;;;1.10;1.00;;;;;;;18.48;59.93;96669.84;10486259;28;20028;-34
2023/05/29 19:40:52;;;;;;;1.35;1.10;;;;;;;18.46;59.92;96671.53;10480159;28;20029;-34
2023/05/29 19:45:53;;;;;;;1.37;1.07;;;;;;;18.64;60.95;96677.44;10477596;28;20037;-32
2023/05/29 19:50:54;;;;;;;0.90;0.85;;;;;;;18.81;60.42;96685.03;10477591;28;20031;-33
2023/05/29 19:55:56;;;;;;;0.93;0.93;;;;;;;18.73;60.17;96694.31;10493177;28;20032;-33
2023/05/29 20:00:57;;;;;;;1.23;1.00;;;;;;;18.62;60.67;96699.44;10471519;28;20017;-33
2023/05/29 20:05:58;;;;;;;1.15;1.05;;;;;;;18.57;60.65;96720.56;10489703;28;20111;-32
2023/05/29 20:10:58;;;;;;;1.03;0.90;;;;;;;18.53;60.51;96729.00;10474872;28;20028;-33
2023/05/29 20:15:59;;;;;;;1.17;1.08;;;;;;;18.50;60.26;96732.38;10485715;28;20802;-32
2023/05/29 20:20:59;;;;;;;0.82;0.82;;;;;;;18.49;60.27;96738.31;10469974;28;20283;-33
2023/05/29 20:26:00;;;;;;;1.20;1.00;;;;;;;18.48;60.26;96741.69;10475952;28;20032;-35
2023/05/29 20:31:00;;;;;;;1.13;1.03;;;;;;;18.48;60.19;96756.91;10483956;28;20033;-33
2023/05/29 20:36:01;;;;;;;1.30;1.02;;;;;;;18.47;60.18;96754.34;10483678;28;20025;-32
2023/05/29 20:41:09;;;;;;;1.02;0.93;;;;;;;18.47;59.86;96754.34;10610103;27;20410;-30
2023/05/29 20:46:09;;;;;;;1.35;1.20;;;;;;;18.61;60.51;96758.59;10569327;28;20032;-31
2023/05/29 20:51:10;;;;;;;1.30;1.07;;;;;;;18.78;60.30;96756.91;10563384;28;20026;-31
2023/05/29 20:56:11;;;;;;;1.08;0.98;;;;;;;18.76;60.23;96758.59;10567896;28;20119;-31
2023/05/29 21:01:11;;;;;;;1.10;0.98;;;;;;;18.59;60.56;96750.13;10567373;28;20032;-31
2023/05/29 21:06:11;;;;;;;1.10;0.77;;;;;;;18.56;60.51;96759.44;10566038;28;20514;-30
2023/05/29 21:11:12;;;;;;;0.80;0.70;;;;;;;18.52;60.29;96761.16;10567458;28;20035;-31
2023/05/29 21:16:12;;;;;;;0.73;0.70;;;;;;;18.47;60.18;96754.34;10560970;28;20114;-31
2023/05/29 21:21:14;;;;;;;0.97;0.93;;;;;;;18.49;60.17;96765.38;10568258;28;20032;-33
2023/05/29 21:26:15;;;;;;;1.58;1.00;;;;;;;18.48;59.87;96756.03;10559726;28;20567;-33
2023/05/29 21:31:15;;;;;;;1.10;1.00;;;;;;;18.47;60.15;96767.03;10566703;28;20031;-32
2023/05/29 21:36:16;;;;;;;1.08;0.98;;;;;;;18.46;60.18;96761.13;10566834;28;20028;-34
2023/05/29 21:41:16;;;;;;;1.38;1.27;;;;;;;18.42;60.01;96763.66;10564992;28;20524;-33
2023/05/29 21:46:17;;;;;;;1.27;1.10;;;;;;;18.58;61.27;96757.75;10567028;28;20039;-34
2023/05/29 21:51:19;;;;;;;0.73;0.73;;;;;;;18.75;60.23;96763.69;10542573;28;20028;-33
2023/05/29 21:56:21;;;;;;;0.93;0.82;;;;;;;18.72;59.83;96771.25;10538697;28;20479;-33
2023/05/29 22:01:22;;;;;;;1.42;1.30;;;;;;;18.48;60.21;96766.19;10530803;28;20128;-33
2023/05/29 22:06:22;;;;;;;1.35;1.17;;;;;;;18.43;59.52;96783.09;10538416;28;20116;-34
2023/05/29 22:11:25;;;;;;;1.37;1.23;;;;;;;18.38;59.38;96779.69;10536792;28;20475;-33
2023/05/29 22:16:26;;;;;;;1.55;1.40;;;;;;;18.32;59.11;96769.56;10535128;28;20036;-34
2023/05/29 22:21:26;;;;;;;1.73;1.30;;;;;;;18.30;59.00;96768.69;10537797;28;20036;-34
2023/05/29 22:26:28;;;;;;;1.70;1.30;;;;;;;18.26;59.03;96772.88;10533903;28;20040;-32
2023/05/29 22:31:28;;;;;;;1.90;1.25;;;;;;;18.25;58.88;96773.72;10537987;28;20447;-33
2023/05/29 22:36:29;;;;;;;1.73;1.60;;;;;;;18.25;58.82;96775.44;10531712;28;20092;-34
2023/05/29 22:41:29;;;;;;;1.70;1.30;;;;;;;18.23;58.56;96779.63;10537214;28;20036;-33
2023/05/29 22:46:29;;;;;;;2.33;2.00;;;;;;;18.38;58.75;96774.63;10529801;28;20497;-35
2023/05/29 22:51:32;;;;;;;2.27;1.80;;;;;;;18.60;58.20;96771.28;10534856;28;20388;-33
2023/05/29 22:56:32;;;;;;;1.67;1.30;;;;;;;18.62;57.87;96757.75;10536188;28;20035;-32
2023/05/29 23:01:33;;;;;;;1.80;1.50;;;;;;;18.50;58.66;96764.53;10526097;28;20047;-33
2023/05/29 23:06:33;;;;;;;2.08;1.85;;;;;;;18.41;58.16;96754.38;10535640;28;20401;-33
2023/05/29 23:11:34;;;;;;;1.77;1.50;;;;;;;18.35;58.03;96769.56;10534031;28;20046;-33
2023/05/29 23:16:34;;;;;;;2.37;1.77;;;;;;;18.31;58.27;96762.78;10532165;28;20027;-33
2023/05/29 23:21:35;;;;;;;2.05;1.63;;;;;;;18.28;58.17;96763.63;10535508;28;20039;-33
2023/05/29 23:26:35;;;;;;;2.17;1.90;;;;;;;18.24;58.21;96750.94;10533481;28;20032;-33